sensor_id;sensor_type;location;lat;lon;timestamp;pressure;altitude;pressure_sealevel;temperature
12430;BMP280;6279;42.192;24.326;2022-07-06T00:00:59;98897.50;;;24.11
12430;BMP280;6279;42.192;24.326;2022-07-06T00:03:25;98887.50;;;24.22
12430;BMP280;6279;42.192;24.326;2022-07-06T00:05:50;98887.78;;;24.26
12430;BMP280;6279;42.192;24.326;2022-07-06T00:08:16;98879.63;;;24.37
12430;BMP280;6279;42.192;24.326;2022-07-06T00:10:41;98878.88;;;24.46
12430;BMP280;6279;42.192;24.326;2022-07-06T00:13:07;98882.94;;;24.54
12430;BMP280;6279;42.192;24.326;2022-07-06T00:15:32;98878.16;;;24.56
12430;BMP280;6279;42.192;24.326;2022-07-06T00:17:58;98873.94;;;24.64
12430;BMP280;6279;42.192;24.326;2022-07-06T00:20:23;98866.47;;;24.62
12430;BMP280;6279;42.192;24.326;2022-07-06T00:22:48;98860.94;;;24.68
12430;BMP280;6279;42.192;24.326;2022-07-06T00:25:14;98846.53;;;24.64
12430;BMP280;6279;42.192;24.326;2022-07-06T00:27:39;98854.22;;;24.56
12430;BMP280;6279;42.192;24.326;2022-07-06T00:30:05;98844.13;;;24.63
12430;BMP280;6279;42.192;24.326;2022-07-06T00:32:31;98840.91;;;24.51
12430;BMP280;6279;42.192;24.326;2022-07-06T00:34:56;98834.53;;;24.57
12430;BMP280;6279;42.192;24.326;2022-07-06T00:37:22;98834.53;;;24.57
12430;BMP280;6279;42.192;24.326;2022-07-06T00:39:47;98830.81;;;24.58
12430;BMP280;6279;42.192;24.326;2022-07-06T00:42:12;98819.38;;;24.57
12430;BMP280;6279;42.192;24.326;2022-07-06T00:44:38;98814.31;;;24.56
12430;BMP280;6279;42.192;24.326;2022-07-06T00:47:03;98804.69;;;24.45
12430;BMP280;6279;42.192;24.326;2022-07-06T00:49:29;98796.97;;;24.43
12430;BMP280;6279;42.192;24.326;2022-07-06T00:52:12;98793.53;;;24.43
12430;BMP280;6279;42.192;24.326;2022-07-06T00:54:39;98791.91;;;24.42
12430;BMP280;6279;42.192;24.326;2022-07-06T00:57:06;98782.34;;;24.36
12430;BMP280;6279;42.192;24.326;2022-07-06T00:59:31;98777.22;;;24.25
12430;BMP280;6279;42.192;24.326;2022-07-06T01:01:57;98766.31;;;24.26
12430;BMP280;6279;42.192;24.326;2022-07-06T01:04:23;98765.19;;;24.13
12430;BMP280;6279;42.192;24.326;2022-07-06T01:06:48;98756.53;;;23.91
12430;BMP280;6279;42.192;24.326;2022-07-06T01:09:14;98751.97;;;23.82
12430;BMP280;6279;42.192;24.326;2022-07-06T01:11:40;98749.50;;;23.71
12430;BMP280;6279;42.192;24.326;2022-07-06T01:14:05;98745.34;;;23.84
12430;BMP280;6279;42.192;24.326;2022-07-06T01:16:32;98735.81;;;23.93
12430;BMP280;6279;42.192;24.326;2022-07-06T01:18:57;98729.16;;;23.91
12430;BMP280;6279;42.192;24.326;2022-07-06T01:21:23;98721.47;;;23.94
12430;BMP280;6279;42.192;24.326;2022-07-06T01:23:48;98714.03;;;23.91
12430;BMP280;6279;42.192;24.326;2022-07-06T01:26:19;98713.50;;;23.94
12430;BMP280;6279;42.192;24.326;2022-07-06T01:28:48;98712.97;;;23.92
12430;BMP280;6279;42.192;24.326;2022-07-06T01:31:24;98705.25;;;23.91
12430;BMP280;6279;42.192;24.326;2022-07-06T01:33:51;98704.44;;;23.85
12430;BMP280;6279;42.192;24.326;2022-07-06T01:36:17;98706.28;;;23.85
12430;BMP280;6279;42.192;24.326;2022-07-06T01:38:51;98711.59;;;23.80
12430;BMP280;6279;42.192;24.326;2022-07-06T01:41:17;98725.13;;;23.78
12430;BMP280;6279;42.192;24.326;2022-07-06T01:43:43;98732.06;;;23.84
12430;BMP280;6279;42.192;24.326;2022-07-06T01:46:08;98740.59;;;23.91
12430;BMP280;6279;42.192;24.326;2022-07-06T01:48:34;98745.19;;;24.00
12430;BMP280;6279;42.192;24.326;2022-07-06T01:51:00;98742.59;;;24.10
12430;BMP280;6279;42.192;24.326;2022-07-06T01:53:25;98749.28;;;24.18
12430;BMP280;6279;42.192;24.326;2022-07-06T01:55:50;98760.47;;;24.24
12430;BMP280;6279;42.192;24.326;2022-07-06T01:58:16;98760.97;;;24.17
12430;BMP280;6279;42.192;24.326;2022-07-06T02:00:41;98746.03;;;24.06
12430;BMP280;6279;42.192;24.326;2022-07-06T02:03:07;98744.38;;;24.00
12430;BMP280;6279;42.192;24.326;2022-07-06T02:05:32;98740.81;;;23.85
12430;BMP280;6279;42.192;24.326;2022-07-06T02:07:58;98735.16;;;23.72
12430;BMP280;6279;42.192;24.326;2022-07-06T02:10:23;98727.06;;;23.57
12430;BMP280;6279;42.192;24.326;2022-07-06T02:12:48;98724.94;;;23.54
12430;BMP280;6279;42.192;24.326;2022-07-06T02:15:14;98723.81;;;23.45
12430;BMP280;6279;42.192;24.326;2022-07-06T02:17:39;98731.25;;;23.43
12430;BMP280;6279;42.192;24.326;2022-07-06T02:20:05;98736.56;;;23.43
12430;BMP280;6279;42.192;24.326;2022-07-06T02:22:31;98735.44;;;23.39
12430;BMP280;6279;42.192;24.326;2022-07-06T02:24:57;98737.84;;;23.41
12430;BMP280;6279;42.192;24.326;2022-07-06T02:27:22;98726.94;;;23.37
12430;BMP280;6279;42.192;24.326;2022-07-06T02:29:48;98737.63;;;23.42
12430;BMP280;6279;42.192;24.326;2022-07-06T02:32:13;98736.03;;;23.46
12430;BMP280;6279;42.192;24.326;2022-07-06T02:34:38;98741.66;;;23.54
12430;BMP280;6279;42.192;24.326;2022-07-06T02:37:04;98734.78;;;23.58
12430;BMP280;6279;42.192;24.326;2022-07-06T02:39:30;98734.31;;;23.61
12430;BMP280;6279;42.192;24.326;2022-07-06T02:41:55;98747.50;;;23.56
12430;BMP280;6279;42.192;24.326;2022-07-06T02:44:21;98740.31;;;23.52
12430;BMP280;6279;42.192;24.326;2022-07-06T02:46:46;98745.66;;;23.57
12430;BMP280;6279;42.192;24.326;2022-07-06T02:49:12;98747.50;;;23.56
12430;BMP280;6279;42.192;24.326;2022-07-06T02:51:37;98754.91;;;23.50
12430;BMP280;6279;42.192;24.326;2022-07-06T02:54:03;98751.09;;;23.41
12430;BMP280;6279;42.192;24.326;2022-07-06T02:56:28;98757.63;;;23.29
12430;BMP280;6279;42.192;24.326;2022-07-06T02:58:54;98759.78;;;23.31
12430;BMP280;6279;42.192;24.326;2022-07-06T03:01:19;98771.19;;;23.32
12430;BMP280;6279;42.192;24.326;2022-07-06T03:03:44;98761.34;;;23.28
12430;BMP280;6279;42.192;24.326;2022-07-06T03:06:10;98770.63;;;23.30
12430;BMP280;6279;42.192;24.326;2022-07-06T03:08:35;98767.34;;;23.44
12430;BMP280;6279;42.192;24.326;2022-07-06T03:11:01;98761.00;;;23.45
12430;BMP280;6279;42.192;24.326;2022-07-06T03:13:27;98765.81;;;23.53
12430;BMP280;6279;42.192;24.326;2022-07-06T03:15:53;98764.25;;;23.57
12430;BMP280;6279;42.192;24.326;2022-07-06T03:18:19;98766.34;;;23.55
12430;BMP280;6279;42.192;24.326;2022-07-06T03:20:44;98770.16;;;23.64
12430;BMP280;6279;42.192;24.326;2022-07-06T03:23:09;98770.44;;;23.67
12430;BMP280;6279;42.192;24.326;2022-07-06T03:25:35;98763.84;;;23.74
12430;BMP280;6279;42.192;24.326;2022-07-06T03:28:00;98764.38;;;23.72
12430;BMP280;6279;42.192;24.326;2022-07-06T03:30:26;98761.78;;;23.81
12430;BMP280;6279;42.192;24.326;2022-07-06T03:32:51;98763.72;;;23.96
12430;BMP280;6279;42.192;24.326;2022-07-06T03:35:17;98769.41;;;24.04
12430;BMP280;6279;42.192;24.326;2022-07-06T03:37:42;98767.56;;;24.09
12430;BMP280;6279;42.192;24.326;2022-07-06T03:40:08;98773.34;;;24.01
12430;BMP280;6279;42.192;24.326;2022-07-06T03:42:35;98769.41;;;24.09
12430;BMP280;6279;42.192;24.326;2022-07-06T03:45:00;98771.25;;;24.03
12430;BMP280;6279;42.192;24.326;2022-07-06T03:47:25;98772.59;;;24.06
12430;BMP280;6279;42.192;24.326;2022-07-06T03:49:51;98768.81;;;24.02
12430;BMP280;6279;42.192;24.326;2022-07-06T03:52:16;98768.53;;;23.98
12430;BMP280;6279;42.192;24.326;2022-07-06T03:54:42;98762.34;;;23.88
12430;BMP280;6279;42.192;24.326;2022-07-06T03:57:07;98765.19;;;23.77
12430;BMP280;6279;42.192;24.326;2022-07-06T03:59:33;98761.66;;;23.62
12430;BMP280;6279;42.192;24.326;2022-07-06T04:01:58;98766.72;;;23.68
12430;BMP280;6279;42.192;24.326;2022-07-06T04:04:24;98766.00;;;23.77
12430;BMP280;6279;42.192;24.326;2022-07-06T04:06:49;98768.69;;;23.82
12430;BMP280;6279;42.192;24.326;2022-07-06T04:09:14;98771.63;;;23.86
12430;BMP280;6279;42.192;24.326;2022-07-06T04:11:40;98771.75;;;24.00
12430;BMP280;6279;42.192;24.326;2022-07-06T04:14:05;98775.31;;;24.16
12430;BMP280;6279;42.192;24.326;2022-07-06T04:16:31;98775.91;;;24.27
12430;BMP280;6279;42.192;24.326;2022-07-06T04:18:56;98777.84;;;24.41
12430;BMP280;6279;42.192;24.326;2022-07-06T04:21:22;98794.66;;;24.57
12430;BMP280;6279;42.192;24.326;2022-07-06T04:23:47;98783.25;;;24.66
12430;BMP280;6279;42.192;24.326;2022-07-06T04:26:13;98780.41;;;24.77
12430;BMP280;6279;42.192;24.326;2022-07-06T04:28:38;98780.19;;;24.93
12430;BMP280;6279;42.192;24.326;2022-07-06T04:31:04;98781.28;;;25.12
12430;BMP280;6279;42.192;24.326;2022-07-06T04:33:29;98779.16;;;25.19
12430;BMP280;6279;42.192;24.326;2022-07-06T04:35:55;98786.38;;;25.28
12430;BMP280;6279;42.192;24.326;2022-07-06T04:38:20;98784.22;;;25.30
12430;BMP280;6279;42.192;24.326;2022-07-06T04:40:46;98784.81;;;25.42
12430;BMP280;6279;42.192;24.326;2022-07-06T04:43:12;98788.03;;;25.58
12430;BMP280;6279;42.192;24.326;2022-07-06T04:45:37;98785.59;;;25.67
12430;BMP280;6279;42.192;24.326;2022-07-06T04:48:03;98795.72;;;25.74
12430;BMP280;6279;42.192;24.326;2022-07-06T04:50:29;98802.41;;;25.77
12430;BMP280;6279;42.192;24.326;2022-07-06T04:52:54;98807.72;;;25.62
12430;BMP280;6279;42.192;24.326;2022-07-06T04:55:20;98805.31;;;25.66
12430;BMP280;6279;42.192;24.326;2022-07-06T04:57:45;98806.94;;;25.57
12430;BMP280;6279;42.192;24.326;2022-07-06T05:00:11;98799.19;;;25.51
12430;BMP280;6279;42.192;24.326;2022-07-06T05:02:37;98798.09;;;25.37
12430;BMP280;6279;42.192;24.326;2022-07-06T05:05:03;98799.69;;;25.38
12430;BMP280;6279;42.192;24.326;2022-07-06T05:07:31;98802.91;;;25.35
12430;BMP280;6279;42.192;24.326;2022-07-06T05:09:59;98810.13;;;25.39
12430;BMP280;6279;42.192;24.326;2022-07-06T05:12:24;98806.91;;;25.47
12430;BMP280;6279;42.192;24.326;2022-07-06T05:14:50;98816.22;;;25.50
12430;BMP280;6279;42.192;24.326;2022-07-06T05:17:15;98816.53;;;25.58
12430;BMP280;6279;42.192;24.326;2022-07-06T05:19:41;98815.72;;;25.62
12430;BMP280;6279;42.192;24.326;2022-07-06T05:22:06;98825.28;;;25.73
12430;BMP280;6279;42.192;24.326;2022-07-06T05:24:31;98822.63;;;25.73
12430;BMP280;6279;42.192;24.326;2022-07-06T05:26:57;98824.50;;;25.77
12430;BMP280;6279;42.192;24.326;2022-07-06T05:29:22;98824.22;;;25.84
12430;BMP280;6279;42.192;24.326;2022-07-06T05:31:48;98831.44;;;25.93
12430;BMP280;6279;42.192;24.326;2022-07-06T05:34:13;98825.31;;;26.02
12430;BMP280;6279;42.192;24.326;2022-07-06T05:36:38;98833.84;;;26.14
12430;BMP280;6279;42.192;24.326;2022-07-06T05:39:04;98835.97;;;26.07
12430;BMP280;6279;42.192;24.326;2022-07-06T05:41:29;98838.91;;;26.11
12430;BMP280;6279;42.192;24.326;2022-07-06T05:43:55;98845.03;;;26.11
12430;BMP280;6279;42.192;24.326;2022-07-06T05:46:20;98839.19;;;26.14
12430;BMP280;6279;42.192;24.326;2022-07-06T05:48:46;98845.03;;;26.11
12430;BMP280;6279;42.192;24.326;2022-07-06T05:51:32;98844.19;;;26.25
12430;BMP280;6279;42.192;24.326;2022-07-06T05:53:58;98842.34;;;26.21
12430;BMP280;6279;42.192;24.326;2022-07-06T05:56:24;98846.06;;;26.35
12430;BMP280;6279;42.192;24.326;2022-07-06T05:58:49;98847.91;;;26.39
12430;BMP280;6279;42.192;24.326;2022-07-06T06:01:15;98847.63;;;26.45
12430;BMP280;6279;42.192;24.326;2022-07-06T06:03:40;98845.47;;;26.52
12430;BMP280;6279;42.192;24.326;2022-07-06T06:06:06;98853.50;;;26.57
12430;BMP280;6279;42.192;24.326;2022-07-06T06:08:31;98850.28;;;26.50
12430;BMP280;6279;42.192;24.326;2022-07-06T06:10:57;98849.75;;;26.43
12430;BMP280;6279;42.192;24.326;2022-07-06T06:13:22;98844.94;;;26.45
12430;BMP280;6279;42.192;24.326;2022-07-06T06:15:51;98846.31;;;26.48
12430;BMP280;6279;42.192;24.326;2022-07-06T06:18:16;98852.94;;;26.70
12430;BMP280;6279;42.192;24.326;2022-07-06T06:20:44;98842.19;;;26.85
12430;BMP280;6279;42.192;24.326;2022-07-06T06:23:09;98847.41;;;27.09
12430;BMP280;6279;42.192;24.326;2022-07-06T06:25:37;98846.88;;;27.07
12430;BMP280;6279;42.192;24.326;2022-07-06T06:28:04;98851.91;;;27.13
12430;BMP280;6279;42.192;24.326;2022-07-06T06:30:31;98839.91;;;27.21
12430;BMP280;6279;42.192;24.326;2022-07-06T06:33:13;98839.91;;;27.21
12430;BMP280;6279;42.192;24.326;2022-07-06T06:35:47;98835.00;;;27.37
12430;BMP280;6279;42.192;24.326;2022-07-06T06:38:13;98827.84;;;27.66
12430;BMP280;6279;42.192;24.326;2022-07-06T06:40:39;98834.47;;;27.78
12430;BMP280;6279;42.192;24.326;2022-07-06T06:43:05;98844.41;;;28.00
12430;BMP280;6279;42.192;24.326;2022-07-06T06:45:30;98830.16;;;28.10
12430;BMP280;6279;42.192;24.326;2022-07-06T06:47:56;98838.53;;;28.54
12430;BMP280;6279;42.192;24.326;2022-07-06T06:50:21;98827.22;;;28.85
12430;BMP280;6279;42.192;24.326;2022-07-06T06:52:49;98829.16;;;29.21
12430;BMP280;6279;42.192;24.326;2022-07-06T06:55:15;98830.16;;;29.43
12430;BMP280;6279;42.192;24.326;2022-07-06T06:57:41;98836.16;;;29.89
12430;BMP280;6279;42.192;24.326;2022-07-06T07:00:06;98834.88;;;30.18
12430;BMP280;6279;42.192;24.326;2022-07-06T07:02:32;98823.88;;;30.33
12430;BMP280;6279;42.192;24.326;2022-07-06T07:04:58;98819.81;;;30.48
12430;BMP280;6279;42.192;24.326;2022-07-06T07:07:23;98821.63;;;30.66
12430;BMP280;6279;42.192;24.326;2022-07-06T07:09:49;98815.09;;;30.59
12430;BMP280;6279;42.192;24.326;2022-07-06T07:12:14;98815.06;;;30.98
12430;BMP280;6279;42.192;24.326;2022-07-06T07:14:42;98812.97;;;30.95
12430;BMP280;6279;42.192;24.326;2022-07-06T07:17:08;98812.31;;;31.25
12430;BMP280;6279;42.192;24.326;2022-07-06T07:19:33;98807.34;;;31.66
12430;BMP280;6279;42.192;24.326;2022-07-06T07:21:58;98804.81;;;31.91
12430;BMP280;6279;42.192;24.326;2022-07-06T07:24:24;98811.41;;;32.58
12430;BMP280;6279;42.192;24.326;2022-07-06T07:26:49;98812.06;;;33.18
12430;BMP280;6279;42.192;24.326;2022-07-06T07:29:15;98807.72;;;33.01
12430;BMP280;6279;42.192;24.326;2022-07-06T07:31:40;98812.75;;;32.77
12430;BMP280;6279;42.192;24.326;2022-07-06T07:34:05;98808.16;;;32.48
12430;BMP280;6279;42.192;24.326;2022-07-06T07:36:31;98802.75;;;32.48
12430;BMP280;6279;42.192;24.326;2022-07-06T07:38:56;98807.78;;;33.17
12430;BMP280;6279;42.192;24.326;2022-07-06T07:41:22;98806.47;;;34.15
12430;BMP280;6279;42.192;24.326;2022-07-06T07:43:47;98797.59;;;34.96
12430;BMP280;6279;42.192;24.326;2022-07-06T07:46:13;98802.09;;;35.92
12430;BMP280;6279;42.192;24.326;2022-07-06T07:48:38;98805.81;;;36.75
12430;BMP280;6279;42.192;24.326;2022-07-06T07:51:03;98806.78;;;37.29
12430;BMP280;6279;42.192;24.326;2022-07-06T07:53:29;98811.56;;;37.97
12430;BMP280;6279;42.192;24.326;2022-07-06T07:55:55;98805.34;;;37.97
12430;BMP280;6279;42.192;24.326;2022-07-06T07:58:20;98802.03;;;37.38
12430;BMP280;6279;42.192;24.326;2022-07-06T08:00:45;98806.16;;;36.85
12430;BMP280;6279;42.192;24.326;2022-07-06T08:03:11;98800.25;;;36.48
12430;BMP280;6279;42.192;24.326;2022-07-06T08:05:37;98803.56;;;35.70
12430;BMP280;6279;42.192;24.326;2022-07-06T08:08:03;98797.44;;;36.24
12430;BMP280;6279;42.192;24.326;2022-07-06T08:10:29;98789.66;;;36.78
12430;BMP280;6279;42.192;24.326;2022-07-06T08:12:55;98797.88;;;37.67
12430;BMP280;6279;42.192;24.326;2022-07-06T08:15:20;98806.00;;;38.21
12430;BMP280;6279;42.192;24.326;2022-07-06T08:17:46;98799.31;;;38.03
12430;BMP280;6279;42.192;24.326;2022-07-06T08:20:11;98813.59;;;36.76
12430;BMP280;6279;42.192;24.326;2022-07-06T08:22:37;98807.66;;;36.27
12430;BMP280;6279;42.192;24.326;2022-07-06T08:25:04;98806.56;;;36.63
12430;BMP280;6279;42.192;24.326;2022-07-06T08:27:29;98810.28;;;38.22
12430;BMP280;6279;42.192;24.326;2022-07-06T08:29:55;98802.03;;;38.91
12430;BMP280;6279;42.192;24.326;2022-07-06T08:32:20;98811.03;;;39.10
12430;BMP280;6279;42.192;24.326;2022-07-06T08:34:47;98803.72;;;40.63
12430;BMP280;6279;42.192;24.326;2022-07-06T08:37:12;98798.75;;;41.44
12430;BMP280;6279;42.192;24.326;2022-07-06T08:39:38;98805.00;;;41.45
12430;BMP280;6279;42.192;24.326;2022-07-06T08:42:03;98799.59;;;42.45
12430;BMP280;6279;42.192;24.326;2022-07-06T08:44:29;98789.41;;;43.48
12430;BMP280;6279;42.192;24.326;2022-07-06T08:46:57;98791.75;;;43.49
12430;BMP280;6279;42.192;24.326;2022-07-06T08:49:25;98787.72;;;43.26
12430;BMP280;6279;42.192;24.326;2022-07-06T08:51:51;98787.31;;;43.21
12430;BMP280;6279;42.192;24.326;2022-07-06T08:54:17;98799.75;;;41.91
12430;BMP280;6279;42.192;24.326;2022-07-06T08:56:44;98799.66;;;41.26
12430;BMP280;6279;42.192;24.326;2022-07-06T08:59:10;98793.53;;;41.94
12430;BMP280;6279;42.192;24.326;2022-07-06T09:01:38;98781.94;;;43.41
12430;BMP280;6279;42.192;24.326;2022-07-06T09:04:05;98776.84;;;44.89
12430;BMP280;6279;42.192;24.326;2022-07-06T09:06:33;98785.19;;;45.90
12430;BMP280;6279;42.192;24.326;2022-07-06T09:08:58;98781.81;;;45.52
12430;BMP280;6279;42.192;24.326;2022-07-06T09:11:25;98777.09;;;45.52
12430;BMP280;6279;42.192;24.326;2022-07-06T09:13:51;98773.94;;;45.60
12430;BMP280;6279;42.192;24.326;2022-07-06T09:16:17;98773.31;;;44.71
12430;BMP280;6279;42.192;24.326;2022-07-06T09:18:44;98782.88;;;43.79
12430;BMP280;6279;42.192;24.326;2022-07-06T09:21:09;98783.94;;;43.48
12430;BMP280;6279;42.192;24.326;2022-07-06T09:23:36;98777.38;;;43.03
12430;BMP280;6279;42.192;24.326;2022-07-06T09:26:07;98769.69;;;44.05
12430;BMP280;6279;42.192;24.326;2022-07-06T09:28:45;98759.53;;;45.15
12430;BMP280;6279;42.192;24.326;2022-07-06T09:31:11;98759.94;;;45.04
12430;BMP280;6279;42.192;24.326;2022-07-06T09:33:37;98751.72;;;44.83
12430;BMP280;6279;42.192;24.326;2022-07-06T09:36:03;98766.25;;;44.67
12430;BMP280;6279;42.192;24.326;2022-07-06T09:38:31;98753.22;;;43.95
12430;BMP280;6279;42.192;24.326;2022-07-06T09:40:56;98753.34;;;43.35
12430;BMP280;6279;42.192;24.326;2022-07-06T09:43:23;98746.47;;;42.49
12430;BMP280;6279;42.192;24.326;2022-07-06T09:45:51;98757.25;;;42.36
12430;BMP280;6279;42.192;24.326;2022-07-06T09:48:19;98745.72;;;42.52
12430;BMP280;6279;42.192;24.326;2022-07-06T09:50:48;98745.38;;;43.94
12430;BMP280;6279;42.192;24.326;2022-07-06T09:53:16;98749.78;;;44.63
12430;BMP280;6279;42.192;24.326;2022-07-06T09:55:46;98743.06;;;44.06
12430;BMP280;6279;42.192;24.326;2022-07-06T09:58:12;98737.25;;;42.71
12430;BMP280;6279;42.192;24.326;2022-07-06T10:00:38;98734.78;;;41.16
12430;BMP280;6279;42.192;24.326;2022-07-06T10:03:04;98721.66;;;40.49
12430;BMP280;6279;42.192;24.326;2022-07-06T10:05:30;98723.16;;;38.76
12430;BMP280;6279;42.192;24.326;2022-07-06T10:07:58;98715.38;;;38.44
12430;BMP280;6279;42.192;24.326;2022-07-06T10:10:29;98711.34;;;38.84
12430;BMP280;6279;42.192;24.326;2022-07-06T10:12:58;98716.47;;;39.59
12430;BMP280;6279;42.192;24.326;2022-07-06T10:15:28;98713.78;;;39.81
12430;BMP280;6279;42.192;24.326;2022-07-06T10:17:57;98712.84;;;41.67
12430;BMP280;6279;42.192;24.326;2022-07-06T10:20:23;98707.56;;;43.33
12430;BMP280;6279;42.192;24.326;2022-07-06T10:22:53;98704.25;;;45.07
12430;BMP280;6279;42.192;24.326;2022-07-06T10:25:19;98692.03;;;45.18
12430;BMP280;6279;42.192;24.326;2022-07-06T10:27:46;98694.91;;;44.43
12430;BMP280;6279;42.192;24.326;2022-07-06T10:30:12;98695.28;;;41.68
12430;BMP280;6279;42.192;24.326;2022-07-06T10:32:39;98697.59;;;40.80
12430;BMP280;6279;42.192;24.326;2022-07-06T10:35:06;98694.97;;;40.39
12430;BMP280;6279;42.192;24.326;2022-07-06T10:37:32;98684.34;;;38.79
12430;BMP280;6279;42.192;24.326;2022-07-06T10:39:59;98682.81;;;37.87
12430;BMP280;6279;42.192;24.326;2022-07-06T10:42:47;98682.28;;;38.87
12430;BMP280;6279;42.192;24.326;2022-07-06T10:45:49;98673.75;;;40.48
12430;BMP280;6279;42.192;24.326;2022-07-06T10:50:35;98667.31;;;39.71
12430;BMP280;6279;42.192;24.326;2022-07-06T10:53:01;98669.22;;;40.11
12430;BMP280;6279;42.192;24.326;2022-07-06T10:55:30;98676.28;;;38.48
12430;BMP280;6279;42.192;24.326;2022-07-06T10:57:56;98679.09;;;36.48
12430;BMP280;6279;42.192;24.326;2022-07-06T11:00:22;98671.72;;;35.90
12430;BMP280;6279;42.192;24.326;2022-07-06T11:02:48;98666.56;;;35.65
12430;BMP280;6279;42.192;24.326;2022-07-06T11:05:41;98676.63;;;34.84
12430;BMP280;6279;42.192;24.326;2022-07-06T11:08:10;98668.28;;;33.84
12430;BMP280;6279;42.192;24.326;2022-07-06T11:10:56;98674.56;;;33.18
12430;BMP280;6279;42.192;24.326;2022-07-06T11:13:51;98674.94;;;32.37
12430;BMP280;6279;42.192;24.326;2022-07-06T11:16:18;98671.06;;;31.83
12430;BMP280;6279;42.192;24.326;2022-07-06T11:18:50;98663.88;;;31.71
12430;BMP280;6279;42.192;24.326;2022-07-06T11:21:53;98678.59;;;32.03
12430;BMP280;6279;42.192;24.326;2022-07-06T11:24:28;98666.06;;;32.45
12430;BMP280;6279;42.192;24.326;2022-07-06T11:26:56;98674.00;;;32.50
12430;BMP280;6279;42.192;24.326;2022-07-06T11:29:23;98672.78;;;32.56
12430;BMP280;6279;42.192;24.326;2022-07-06T11:31:54;98668.06;;;33.19
12430;BMP280;6279;42.192;24.326;2022-07-06T11:34:24;98660.44;;;33.38
12430;BMP280;6279;42.192;24.326;2022-07-06T11:37:15;98668.88;;;33.20
12430;BMP280;6279;42.192;24.326;2022-07-06T11:39:42;98652.47;;;33.66
12430;BMP280;6279;42.192;24.326;2022-07-06T11:42:13;98652.38;;;34.28
12430;BMP280;6279;42.192;24.326;2022-07-06T11:44:39;98653.28;;;34.32
12430;BMP280;6279;42.192;24.326;2022-07-06T11:47:07;98649.38;;;34.78
12430;BMP280;6279;42.192;24.326;2022-07-06T11:49:34;98658.94;;;33.73
12430;BMP280;6279;42.192;24.326;2022-07-06T11:52:06;98646.66;;;33.31
12430;BMP280;6279;42.192;24.326;2022-07-06T11:54:32;98651.88;;;33.97
12430;BMP280;6279;42.192;24.326;2022-07-06T11:56:58;98642.69;;;33.90
12430;BMP280;6279;42.192;24.326;2022-07-06T11:59:35;98639.31;;;33.65
12430;BMP280;6279;42.192;24.326;2022-07-06T12:02:07;98638.47;;;34.18
12430;BMP280;6279;42.192;24.326;2022-07-06T12:04:38;98644.38;;;33.58
12430;BMP280;6279;42.192;24.326;2022-07-06T12:07:11;98647.31;;;32.95
12430;BMP280;6279;42.192;24.326;2022-07-06T12:09:41;98639.38;;;32.82
12430;BMP280;6279;42.192;24.326;2022-07-06T12:12:08;98633.00;;;33.36
12430;BMP280;6279;42.192;24.326;2022-07-06T12:14:35;98630.78;;;33.91
12430;BMP280;6279;42.192;24.326;2022-07-06T12:17:06;98633.28;;;34.81
12430;BMP280;6279;42.192;24.326;2022-07-06T12:19:32;98628.16;;;35.08
12430;BMP280;6279;42.192;24.326;2022-07-06T12:21:57;98618.94;;;35.21
12430;BMP280;6279;42.192;24.326;2022-07-06T12:24:25;98629.88;;;35.44
12430;BMP280;6279;42.192;24.326;2022-07-06T12:26:53;98624.56;;;35.16
12430;BMP280;6279;42.192;24.326;2022-07-06T12:29:19;98628.66;;;33.68
12430;BMP280;6279;42.192;24.326;2022-07-06T12:31:53;98624.59;;;33.37
12430;BMP280;6279;42.192;24.326;2022-07-06T12:34:27;98623.97;;;33.24
12430;BMP280;6279;42.192;24.326;2022-07-06T12:36:58;98620.63;;;33.52
12430;BMP280;6279;42.192;24.326;2022-07-06T12:39:28;98618.84;;;33.55
12430;BMP280;6279;42.192;24.326;2022-07-06T12:41:55;98619.94;;;34.08
12430;BMP280;6279;42.192;24.326;2022-07-06T12:44:25;98615.16;;;33.68
12430;BMP280;6279;42.192;24.326;2022-07-06T12:47:02;98609.47;;;34.06
12430;BMP280;6279;42.192;24.326;2022-07-06T12:49:28;98614.97;;;33.73
12430;BMP280;6279;42.192;24.326;2022-07-06T12:51:57;98618.03;;;34.08
12430;BMP280;6279;42.192;24.326;2022-07-06T12:54:28;98619.91;;;34.16
12430;BMP280;6279;42.192;24.326;2022-07-06T12:57:02;98621.22;;;33.57
12430;BMP280;6279;42.192;24.326;2022-07-06T12:59:29;98630.66;;;33.26
12430;BMP280;6279;42.192;24.326;2022-07-06T13:01:55;98626.06;;;33.27
12430;BMP280;6279;42.192;24.326;2022-07-06T13:04:26;98643.13;;;33.55
12430;BMP280;6279;42.192;24.326;2022-07-06T13:06:52;98657.84;;;32.50
12430;BMP280;6279;42.192;24.326;2022-07-06T13:09:19;98637.38;;;31.56
12430;BMP280;6279;42.192;24.326;2022-07-06T13:11:45;98652.53;;;31.09
12430;BMP280;6279;42.192;24.326;2022-07-06T13:14:12;98638.22;;;31.43
12430;BMP280;6279;42.192;24.326;2022-07-06T13:16:37;98632.72;;;30.49
12430;BMP280;6279;42.192;24.326;2022-07-06T13:19:03;98627.53;;;30.39
12430;BMP280;6279;42.192;24.326;2022-07-06T13:21:28;98626.81;;;30.12
12430;BMP280;6279;42.192;24.326;2022-07-06T13:23:54;98631.16;;;29.95
12430;BMP280;6279;42.192;24.326;2022-07-06T13:26:19;98628.88;;;29.89
12430;BMP280;6279;42.192;24.326;2022-07-06T13:28:45;98622.91;;;30.31
12430;BMP280;6279;42.192;24.326;2022-07-06T13:31:10;98608.28;;;30.37
12430;BMP280;6279;42.192;24.326;2022-07-06T13:33:36;98618.34;;;30.80
12430;BMP280;6279;42.192;24.326;2022-07-06T13:36:02;98612.72;;;31.11
12430;BMP280;6279;42.192;24.326;2022-07-06T13:38:27;98616.50;;;30.88
12430;BMP280;6279;42.192;24.326;2022-07-06T13:40:53;98616.44;;;30.59
12430;BMP280;6279;42.192;24.326;2022-07-06T13:43:19;98610.09;;;30.76
12430;BMP280;6279;42.192;24.326;2022-07-06T13:45:46;98610.91;;;30.77
12430;BMP280;6279;42.192;24.326;2022-07-06T13:48:12;98598.59;;;30.63
12430;BMP280;6279;42.192;24.326;2022-07-06T13:50:37;98597.03;;;30.48
12430;BMP280;6279;42.192;24.326;2022-07-06T13:53:03;98601.31;;;30.36
12430;BMP280;6279;42.192;24.326;2022-07-06T13:55:30;98598.16;;;30.69
12430;BMP280;6279;42.192;24.326;2022-07-06T13:57:56;98591.59;;;30.96
12430;BMP280;6279;42.192;24.326;2022-07-06T14:00:21;98594.94;;;31.02
12430;BMP280;6279;42.192;24.326;2022-07-06T14:02:47;98603.94;;;31.19
12430;BMP280;6279;42.192;24.326;2022-07-06T14:05:12;98605.53;;;31.20
12430;BMP280;6279;42.192;24.326;2022-07-06T14:07:37;98608.94;;;31.33
12430;BMP280;6279;42.192;24.326;2022-07-06T14:10:03;98600.53;;;31.05